Stacja Pogody
Warszawa Praga-Północ

Szerokość 52°15'43"N Długość 21°01'22"E Wysokość 110m n.p.m.


228 dzień roku.   Do końca pozostalo 137 dni.   Od wczoraj ubyło 4 min. i 19 sek. dnia.
Wschód Słońca 05:20 Górowanie Słońca 12:40 Zachód Słońca 20:00 lew
Data juliańska 2458347.520 Odległość Słońca 151465005 km Średn. kątowa Słońca 0,316°
Wschód Księżyca 11:33 Zachód Księżyca 22:32 Wiek Księżyca 5 dni Moon
Widoczność Księżyca 25,89% Odległość Księżyca 380834 km Średn. kątowa Księżyca 0,314°
Dzień krótszy od najdłuższego o: 02:07 Długość dnia 14:40 Imieniny Rocha, Stefana, Joachima



  Aktualizacja: 16-08-2018 00:27:43
TEMPERATURA
Aktualnie: 19.2°C ↓
Temperatura odczuwalna:22.9°C
Punkt rosy14.7°C
WIATR
Średnia prędkość: 5.0km/h ↑
Prędkość w podmuchach:7.2km/h
Przepływ w ciągu doby:180.4km
Kierunek wiatru:315°
CIŚNIENIE
Względne:1019.5hPa
Trend ciśnienia:powolny wzrost
WILGOTNOŚĆ
Wilgotność względna: 75% ↑
Podstawa chmur2051m
DESZCZ
W ostatniej godzinie: 0.0mm
Dzisiaj:0.0mm
W tym miesiącu:33.0mm
METAR
EPWA 152200Z 27003KT CAVOK 18/15 Q1018 NOSIG
Ostrzeżenia burzowe
Prognoza 12-to godzinna (prawdopodobieństwo 75%):   Stabilna, dobra pogoda prognoza





a  a